sensor_id;sensor_type;location;lat;lon;timestamp;pressure;altitude;pressure_sealevel;temperature;humidity
63700;BME280;49845;47.130;142.766;2022-07-24T00:01:29;99808.78;;;15.66;98.47
63700;BME280;49845;47.130;142.766;2022-07-24T00:04:00;99831.25;;;15.54;98.66
63700;BME280;49845;47.130;142.766;2022-07-24T00:06:31;99865.22;;;15.81;98.90
63700;BME280;49845;47.130;142.766;2022-07-24T00:09:02;99846.66;;;15.64;98.72
63700;BME280;49845;47.130;142.766;2022-07-24T00:11:34;99863.53;;;15.80;99.23
63700;BME280;49845;47.130;142.766;2022-07-24T00:14:06;99865.50;;;15.75;99.43
63700;BME280;49845;47.130;142.766;2022-07-24T00:16:37;99854.25;;;15.71;99.95
63700;BME280;49845;47.130;142.766;2022-07-24T00:19:11;99862.19;;;15.70;99.46
63700;BME280;49845;47.130;142.766;2022-07-24T00:21:44;99815.19;;;15.61;100.00
63700;BME280;49845;47.130;142.766;2022-07-24T00:24:15;99798.03;;;15.72;99.97
63700;BME280;49845;47.130;142.766;2022-07-24T00:26:53;99761.31;;;15.68;99.49
63700;BME280;49845;47.130;142.766;2022-07-24T00:30:32;99712.28;;;15.84;96.18
63700;BME280;49845;47.130;142.766;2022-07-24T00:37:21;99685.00;;;16.75;93.87
63700;BME280;49845;47.130;142.766;2022-07-24T00:40:36;99694.34;;;17.00;89.10
63700;BME280;49845;47.130;142.766;2022-07-24T00:44:12;99844.59;;;18.22;88.29
63700;BME280;49845;47.130;142.766;2022-07-24T00:47:13;99837.78;;;18.49;87.03
63700;BME280;49845;47.130;142.766;2022-07-24T00:49:52;99841.41;;;18.32;84.99
63700;BME280;49845;47.130;142.766;2022-07-24T00:52:26;99830.94;;;17.98;86.09
63700;BME280;49845;47.130;142.766;2022-07-24T00:54:59;99838.22;;;17.59;86.69
63700;BME280;49845;47.130;142.766;2022-07-24T00:57:32;99831.94;;;17.27;89.02
63700;BME280;49845;47.130;142.766;2022-07-24T01:00:06;99846.78;;;17.12;89.55
63700;BME280;49845;47.130;142.766;2022-07-24T01:02:42;99836.22;;;17.12;90.37
63700;BME280;49845;47.130;142.766;2022-07-24T01:06:11;99719.75;;;16.49;92.04
63700;BME280;49845;47.130;142.766;2022-07-24T01:08:48;99799.75;;;17.03;89.53
63700;BME280;49845;47.130;142.766;2022-07-24T01:11:31;99834.97;;;17.19;89.00
63700;BME280;49845;47.130;142.766;2022-07-24T01:14:29;99818.22;;;17.03;90.34
63700;BME280;49845;47.130;142.766;2022-07-24T01:17:35;99814.97;;;17.15;91.10
63700;BME280;49845;47.130;142.766;2022-07-24T01:20:54;99756.88;;;16.80;89.98
63700;BME280;49845;47.130;142.766;2022-07-24T01:25:43;99706.38;;;16.34;90.04
63700;BME280;49845;47.130;142.766;2022-07-24T01:27:50;99815.81;;;17.16;90.79
63700;BME280;49845;47.130;142.766;2022-07-24T01:34:32;99768.13;;;16.84;89.59
63700;BME280;49845;47.130;142.766;2022-07-24T01:37:18;99827.94;;;17.20;89.38
63700;BME280;49845;47.130;142.766;2022-07-24T01:39:52;99831.66;;;17.16;89.13
63700;BME280;49845;47.130;142.766;2022-07-24T01:42:23;99789.81;;;17.08;88.79
63700;BME280;49845;47.130;142.766;2022-07-24T01:44:56;99811.91;;;17.40;89.23
63700;BME280;49845;47.130;142.766;2022-07-24T01:47:27;99740.72;;;17.21;89.37
63700;BME280;49845;47.130;142.766;2022-07-24T01:49:58;99831.97;;;17.95;87.26
63700;BME280;49845;47.130;142.766;2022-07-24T01:52:34;99835.25;;;17.83;87.65
63700;BME280;49845;47.130;142.766;2022-07-24T01:55:06;99833.53;;;17.64;88.74
63700;BME280;49845;47.130;142.766;2022-07-24T01:57:40;99804.63;;;17.28;88.96
63700;BME280;49845;47.130;142.766;2022-07-24T02:00:11;99801.75;;;17.15;89.30
63700;BME280;49845;47.130;142.766;2022-07-24T02:02:44;99818.28;;;17.01;89.55
63700;BME280;49845;47.130;142.766;2022-07-24T02:05:15;99763.63;;;16.50;90.08
63700;BME280;49845;47.130;142.766;2022-07-24T02:07:56;99815.06;;;16.77;90.14
63700;BME280;49845;47.130;142.766;2022-07-24T02:10:26;99822.19;;;16.75;91.02
63700;BME280;49845;47.130;142.766;2022-07-24T02:12:58;99811.91;;;16.69;90.71
63700;BME280;49845;47.130;142.766;2022-07-24T02:15:29;99826.63;;;16.75;89.86
63700;BME280;49845;47.130;142.766;2022-07-24T02:18:00;99823.63;;;16.83;90.97
63700;BME280;49845;47.130;142.766;2022-07-24T02:20:32;99811.06;;;16.88;90.12
63700;BME280;49845;47.130;142.766;2022-07-24T02:23:04;99829.31;;;16.73;89.77
63700;BME280;49845;47.130;142.766;2022-07-24T02:25:34;99822.63;;;16.66;90.20
63700;BME280;49845;47.130;142.766;2022-07-24T02:28:05;99842.44;;;16.75;90.14
63700;BME280;49845;47.130;142.766;2022-07-24T02:30:36;99842.00;;;16.84;90.67
63700;BME280;49845;47.130;142.766;2022-07-24T02:33:10;99847.25;;;17.03;89.46
63700;BME280;49845;47.130;142.766;2022-07-24T02:35:43;99842.59;;;17.08;89.59
63700;BME280;49845;47.130;142.766;2022-07-24T02:38:15;99842.16;;;17.17;88.11
63700;BME280;49845;47.130;142.766;2022-07-24T02:40:46;99842.91;;;17.37;88.25
63700;BME280;49845;47.130;142.766;2022-07-24T02:43:16;99839.47;;;17.52;87.73
63700;BME280;49845;47.130;142.766;2022-07-24T02:45:47;99846.84;;;17.63;86.71
63700;BME280;49845;47.130;142.766;2022-07-24T02:48:20;99843.97;;;17.67;86.32
63700;BME280;49845;47.130;142.766;2022-07-24T02:50:51;99841.16;;;17.88;87.09
63700;BME280;49845;47.130;142.766;2022-07-24T02:53:25;99840.97;;;17.91;85.13
63700;BME280;49845;47.130;142.766;2022-07-24T02:55:58;99841.56;;;17.63;84.95
63700;BME280;49845;47.130;142.766;2022-07-24T02:58:31;99834.34;;;17.14;86.24
63700;BME280;49845;47.130;142.766;2022-07-24T03:01:02;99860.91;;;17.11;88.10
63700;BME280;49845;47.130;142.766;2022-07-24T03:03:33;99847.69;;;16.94;89.19
63700;BME280;49845;47.130;142.766;2022-07-24T03:06:04;99830.28;;;16.90;90.13
63700;BME280;49845;47.130;142.766;2022-07-24T03:08:36;99857.97;;;17.00;89.12
63700;BME280;49845;47.130;142.766;2022-07-24T03:11:07;99857.09;;;16.99;88.90
63700;BME280;49845;47.130;142.766;2022-07-24T03:13:38;99852.50;;;16.86;89.38
63700;BME280;49845;47.130;142.766;2022-07-24T03:16:08;99849.47;;;16.74;89.36
63700;BME280;49845;47.130;142.766;2022-07-24T03:18:39;99840.16;;;16.67;89.71
63700;BME280;49845;47.130;142.766;2022-07-24T03:21:14;99862.44;;;16.80;89.47
63700;BME280;49845;47.130;142.766;2022-07-24T03:24:07;99869.56;;;16.78;88.96
63700;BME280;49845;47.130;142.766;2022-07-24T03:26:37;99874.09;;;16.75;89.78
63700;BME280;49845;47.130;142.766;2022-07-24T03:29:08;99866.09;;;16.76;89.61
63700;BME280;49845;47.130;142.766;2022-07-24T03:31:39;99852.00;;;16.77;90.55
63700;BME280;49845;47.130;142.766;2022-07-24T03:34:12;99858.09;;;16.97;90.85
63700;BME280;49845;47.130;142.766;2022-07-24T03:36:43;99861.53;;;16.99;89.78
63700;BME280;49845;47.130;142.766;2022-07-24T03:39:15;99872.81;;;16.84;89.73
63700;BME280;49845;47.130;142.766;2022-07-24T03:41:46;99840.88;;;16.52;90.14
63700;BME280;49845;47.130;142.766;2022-07-24T03:44:17;99780.22;;;15.96;90.98
63700;BME280;49845;47.130;142.766;2022-07-24T03:46:47;99845.63;;;16.26;91.76
63700;BME280;49845;47.130;142.766;2022-07-24T03:49:22;99855.53;;;16.21;92.56
63700;BME280;49845;47.130;142.766;2022-07-24T03:51:54;99874.63;;;16.26;92.09
63700;BME280;49845;47.130;142.766;2022-07-24T03:54:26;99883.66;;;16.21;92.75
63700;BME280;49845;47.130;142.766;2022-07-24T03:56:57;99864.19;;;16.04;93.22
63700;BME280;49845;47.130;142.766;2022-07-24T03:59:28;99867.97;;;15.99;93.29
63700;BME280;49845;47.130;142.766;2022-07-24T04:02:01;99837.03;;;15.83;93.87
63700;BME280;49845;47.130;142.766;2022-07-24T04:04:32;99871.94;;;15.88;94.68
63700;BME280;49845;47.130;142.766;2022-07-24T04:07:03;99854.88;;;15.56;95.13
63700;BME280;49845;47.130;142.766;2022-07-24T04:09:35;99862.31;;;15.67;96.00
63700;BME280;49845;47.130;142.766;2022-07-24T04:12:12;99865.06;;;15.64;95.92
63700;BME280;49845;47.130;142.766;2022-07-24T04:14:43;99865.63;;;15.72;96.51
63700;BME280;49845;47.130;142.766;2022-07-24T04:17:13;99868.81;;;15.80;96.54
63700;BME280;49845;47.130;142.766;2022-07-24T04:19:46;99792.94;;;15.27;96.42
63700;BME280;49845;47.130;142.766;2022-07-24T04:22:25;99868.81;;;15.80;96.13
63700;BME280;49845;47.130;142.766;2022-07-24T04:24:57;99855.09;;;15.72;95.90
63700;BME280;49845;47.130;142.766;2022-07-24T04:27:28;99856.69;;;15.76;95.90
63700;BME280;49845;47.130;142.766;2022-07-24T04:29:59;99869.94;;;15.93;95.83
63700;BME280;49845;47.130;142.766;2022-07-24T04:32:30;99854.16;;;15.93;94.94
63700;BME280;49845;47.130;142.766;2022-07-24T04:35:00;99849.03;;;15.90;94.02
63700;BME280;49845;47.130;142.766;2022-07-24T04:37:31;99847.28;;;15.89;93.50
63700;BME280;49845;47.130;142.766;2022-07-24T04:40:04;99836.09;;;15.84;94.00
63700;BME280;49845;47.130;142.766;2022-07-24T04:42:35;99859.34;;;15.95;93.92
63700;BME280;49845;47.130;142.766;2022-07-24T04:45:06;99854.84;;;15.78;93.91
63700;BME280;49845;47.130;142.766;2022-07-24T04:47:38;99859.28;;;15.96;94.14
63700;BME280;49845;47.130;142.766;2022-07-24T04:50:09;99868.13;;;15.95;94.46
63700;BME280;49845;47.130;142.766;2022-07-24T04:52:41;99834.91;;;15.72;95.42
63700;BME280;49845;47.130;142.766;2022-07-24T04:55:14;99874.69;;;16.06;94.38
63700;BME280;49845;47.130;142.766;2022-07-24T04:57:45;99878.38;;;16.02;95.45
63700;BME280;49845;47.130;142.766;2022-07-24T05:00:16;99886.41;;;15.99;95.09
63700;BME280;49845;47.130;142.766;2022-07-24T05:02:46;99885.63;;;15.96;95.73
63700;BME280;49845;47.130;142.766;2022-07-24T05:05:17;99884.78;;;15.96;94.34
63700;BME280;49845;47.130;142.766;2022-07-24T05:07:48;99790.06;;;15.33;94.99
63700;BME280;49845;47.130;142.766;2022-07-24T05:10:20;99822.88;;;15.65;94.77
63700;BME280;49845;47.130;142.766;2022-07-24T05:12:52;99887.94;;;16.23;95.06
63700;BME280;49845;47.130;142.766;2022-07-24T05:15:30;99874.81;;;16.22;94.06
63700;BME280;49845;47.130;142.766;2022-07-24T05:18:01;99857.28;;;16.02;94.22
63700;BME280;49845;47.130;142.766;2022-07-24T05:20:31;99798.88;;;15.73;94.66
63700;BME280;49845;47.130;142.766;2022-07-24T05:23:02;99886.81;;;16.48;93.48
63700;BME280;49845;47.130;142.766;2022-07-24T05:25:35;99890.09;;;16.53;92.20
63700;BME280;49845;47.130;142.766;2022-07-24T05:28:05;99890.88;;;16.55;91.90
63700;BME280;49845;47.130;142.766;2022-07-24T05:30:36;99896.06;;;16.75;91.73
63700;BME280;49845;47.130;142.766;2022-07-24T05:33:07;99879.53;;;16.91;89.54
63700;BME280;49845;47.130;142.766;2022-07-24T05:35:38;99878.94;;;17.03;89.75
63700;BME280;49845;47.130;142.766;2022-07-24T05:38:08;99886.78;;;17.22;87.87
63700;BME280;49845;47.130;142.766;2022-07-24T05:40:41;99886.09;;;17.36;88.06
63700;BME280;49845;47.130;142.766;2022-07-24T05:43:11;99868.44;;;17.19;86.94
63700;BME280;49845;47.130;142.766;2022-07-24T05:45:42;99877.75;;;17.09;87.74
63700;BME280;49845;47.130;142.766;2022-07-24T05:48:13;99893.56;;;17.28;88.05
63700;BME280;49845;47.130;142.766;2022-07-24T05:50:43;99875.34;;;17.04;88.50
63700;BME280;49845;47.130;142.766;2022-07-24T05:53:14;99886.91;;;17.01;89.41
63700;BME280;49845;47.130;142.766;2022-07-24T05:55:47;99901.78;;;16.85;89.04
63700;BME280;49845;47.130;142.766;2022-07-24T05:58:18;99895.13;;;16.76;89.74
63700;BME280;49845;47.130;142.766;2022-07-24T06:00:48;99913.41;;;16.81;91.28
63700;BME280;49845;47.130;142.766;2022-07-24T06:03:19;99872.53;;;16.52;90.36
63700;BME280;49845;47.130;142.766;2022-07-24T06:05:50;99897.06;;;16.54;90.88
63700;BME280;49845;47.130;142.766;2022-07-24T06:08:20;99900.00;;;16.48;91.63
63700;BME280;49845;47.130;142.766;2022-07-24T06:10:54;99909.09;;;16.59;91.86
63700;BME280;49845;47.130;142.766;2022-07-24T06:13:25;99883.66;;;16.39;91.23
63700;BME280;49845;47.130;142.766;2022-07-24T06:15:55;99903.91;;;16.39;91.76
63700;BME280;49845;47.130;142.766;2022-07-24T06:18:26;99896.34;;;16.31;92.03
63700;BME280;49845;47.130;142.766;2022-07-24T06:20:57;99898.91;;;16.14;91.88
63700;BME280;49845;47.130;142.766;2022-07-24T06:23:27;99891.50;;;16.22;92.18
63700;BME280;49845;47.130;142.766;2022-07-24T06:26:00;99903.63;;;16.26;92.55
63700;BME280;49845;47.130;142.766;2022-07-24T06:28:30;99879.53;;;16.15;91.68
63700;BME280;49845;47.130;142.766;2022-07-24T06:31:01;99909.19;;;16.39;91.76
63700;BME280;49845;47.130;142.766;2022-07-24T06:33:35;99799.66;;;15.75;91.88
63700;BME280;49845;47.130;142.766;2022-07-24T06:36:07;99906.47;;;16.41;92.09
63700;BME280;49845;47.130;142.766;2022-07-24T06:38:38;99906.75;;;16.34;91.83
63700;BME280;49845;47.130;142.766;2022-07-24T06:41:12;99920.56;;;16.21;92.51
63700;BME280;49845;47.130;142.766;2022-07-24T06:43:43;99906.44;;;16.03;92.90
63700;BME280;49845;47.130;142.766;2022-07-24T06:46:13;99909.69;;;15.89;93.46
63700;BME280;49845;47.130;142.766;2022-07-24T06:48:53;99895.75;;;15.65;94.82
63700;BME280;49845;47.130;142.766;2022-07-24T06:51:37;99910.22;;;15.77;95.20
63700;BME280;49845;47.130;142.766;2022-07-24T06:54:15;99902.88;;;15.63;94.67
63700;BME280;49845;47.130;142.766;2022-07-24T06:56:47;99918.56;;;15.66;95.40
63700;BME280;49845;47.130;142.766;2022-07-24T06:59:19;99908.25;;;15.60;96.05
63700;BME280;49845;47.130;142.766;2022-07-24T07:01:50;99921.44;;;15.60;95.88
63700;BME280;49845;47.130;142.766;2022-07-24T07:04:21;99894.06;;;15.43;95.95
63700;BME280;49845;47.130;142.766;2022-07-24T07:09:55;99894.28;;;15.17;97.29
63700;BME280;49845;47.130;142.766;2022-07-24T07:12:29;99906.53;;;15.18;97.09
63700;BME280;49845;47.130;142.766;2022-07-24T07:18:52;99911.03;;;15.14;97.77
63700;BME280;49845;47.130;142.766;2022-07-24T07:21:22;99893.13;;;15.02;98.80
63700;BME280;49845;47.130;142.766;2022-07-24T07:23:53;99859.84;;;14.79;98.63
63700;BME280;49845;47.130;142.766;2022-07-24T07:26:26;99903.59;;;15.03;98.54
63700;BME280;49845;47.130;142.766;2022-07-24T07:28:59;99886.56;;;14.90;98.83
63700;BME280;49845;47.130;142.766;2022-07-24T07:31:35;99890.75;;;14.96;98.87
63700;BME280;49845;47.130;142.766;2022-07-24T07:34:06;99906.34;;;15.00;98.63
63700;BME280;49845;47.130;142.766;2022-07-24T07:36:40;99887.50;;;14.89;98.93
63700;BME280;49845;47.130;142.766;2022-07-24T07:39:10;99909.00;;;15.00;98.77
63700;BME280;49845;47.130;142.766;2022-07-24T07:41:41;99897.00;;;14.93;98.78
63700;BME280;49845;47.130;142.766;2022-07-24T07:44:13;99908.19;;;14.98;98.49
63700;BME280;49845;47.130;142.766;2022-07-24T07:46:44;99904.31;;;14.85;98.76
63700;BME280;49845;47.130;142.766;2022-07-24T07:49:15;99916.22;;;14.95;99.24
63700;BME280;49845;47.130;142.766;2022-07-24T07:51:45;99904.09;;;14.91;99.62
63700;BME280;49845;47.130;142.766;2022-07-24T07:54:19;99916.97;;;14.97;99.49
63700;BME280;49845;47.130;142.766;2022-07-24T07:56:50;99910.06;;;14.95;99.65
63700;BME280;49845;47.130;142.766;2022-07-24T07:59:22;99919.88;;;14.91;99.57
63700;BME280;49845;47.130;142.766;2022-07-24T08:01:53;99931.88;;;14.98;99.79
63700;BME280;49845;47.130;142.766;2022-07-24T08:04:24;99930.25;;;14.94;99.92
63700;BME280;49845;47.130;142.766;2022-07-24T08:06:54;99932.22;;;14.89;99.80
63700;BME280;49845;47.130;142.766;2022-07-24T08:09:41;99939.94;;;14.94;100.00
63700;BME280;49845;47.130;142.766;2022-07-24T08:12:18;99928.91;;;14.84;99.93
63700;BME280;49845;47.130;142.766;2022-07-24T08:14:50;99937.34;;;14.92;100.00
63700;BME280;49845;47.130;142.766;2022-07-24T08:17:21;99945.38;;;14.89;100.00
63700;BME280;49845;47.130;142.766;2022-07-24T08:19:52;99933.56;;;14.77;100.00
63700;BME280;49845;47.130;142.766;2022-07-24T08:22:22;99920.94;;;14.63;100.00
63700;BME280;49845;47.130;142.766;2022-07-24T08:24:53;99934.78;;;14.69;100.00
63700;BME280;49845;47.130;142.766;2022-07-24T08:27:24;99928.16;;;14.58;100.00
63700;BME280;49845;47.130;142.766;2022-07-24T08:29:56;99938.31;;;14.67;100.00
63700;BME280;49845;47.130;142.766;2022-07-24T08:32:45;99916.41;;;14.43;100.00
63700;BME280;49845;47.130;142.766;2022-07-24T08:39:40;99869.56;;;14.08;100.00
63700;BME280;49845;47.130;142.766;2022-07-24T08:42:10;99904.72;;;14.29;100.00
63700;BME280;49845;47.130;142.766;2022-07-24T08:44:48;99951.16;;;14.53;100.00
63700;BME280;49845;47.130;142.766;2022-07-24T08:47:21;99949.38;;;14.52;100.00
63700;BME280;49845;47.130;142.766;2022-07-24T08:49:54;99955.56;;;14.51;100.00
63700;BME280;49845;47.130;142.766;2022-07-24T08:52:25;99959.91;;;14.52;100.00
63700;BME280;49845;47.130;142.766;2022-07-24T08:54:56;99954.63;;;14.52;100.00
63700;BME280;49845;47.130;142.766;2022-07-24T08:57:27;99959.91;;;14.52;100.00
63700;BME280;49845;47.130;142.766;2022-07-24T09:00:01;99961.84;;;14.47;100.00
63700;BME280;49845;47.130;142.766;2022-07-24T09:02:41;99959.16;;;14.49;100.00
63700;BME280;49845;47.130;142.766;2022-07-24T09:05:12;99960.31;;;14.41;100.00
63700;BME280;49845;47.130;142.766;2022-07-24T09:08:09;99906.34;;;14.08;100.00
63700;BME280;49845;47.130;142.766;2022-07-24T09:10:40;99966.66;;;14.36;100.00
63700;BME280;49845;47.130;142.766;2022-07-24T09:13:14;99965.00;;;14.33;100.00
63700;BME280;49845;47.130;142.766;2022-07-24T09:15:46;99975.91;;;14.46;100.00
63700;BME280;49845;47.130;142.766;2022-07-24T09:18:31;99936.00;;;14.11;100.00
63700;BME280;49845;47.130;142.766;2022-07-24T09:21:13;99898.69;;;13.78;100.00
63700;BME280;49845;47.130;142.766;2022-07-24T09:23:44;99982.25;;;14.40;100.00
63700;BME280;49845;47.130;142.766;2022-07-24T09:26:21;99965.09;;;14.30;100.00
63700;BME280;49845;47.130;142.766;2022-07-24T09:28:54;99925.25;;;13.94;100.00
63700;BME280;49845;47.130;142.766;2022-07-24T09:31:29;99985.16;;;14.33;100.00
63700;BME280;49845;47.130;142.766;2022-07-24T09:34:08;99992.25;;;14.31;100.00
63700;BME280;49845;47.130;142.766;2022-07-24T09:36:43;99991.47;;;14.27;100.00
63700;BME280;49845;47.130;142.766;2022-07-24T09:39:40;99994.19;;;14.26;100.00
63700;BME280;49845;47.130;142.766;2022-07-24T09:42:12;99999.44;;;14.26;100.00
63700;BME280;49845;47.130;142.766;2022-07-24T09:44:43;99987.31;;;14.21;100.00
63700;BME280;49845;47.130;142.766;2022-07-24T09:47:16;99990.88;;;14.20;100.00
63700;BME280;49845;47.130;142.766;2022-07-24T09:49:54;100001.38;;;14.20;100.00
63700;BME280;49845;47.130;142.766;2022-07-24T09:52:41;99999.31;;;14.29;100.00
63700;BME280;49845;47.130;142.766;2022-07-24T09:55:25;99994.25;;;14.22;100.00
63700;BME280;49845;47.130;142.766;2022-07-24T09:57:56;100001.13;;;14.27;100.00
63700;BME280;49845;47.130;142.766;2022-07-24T10:00:27;100010.03;;;14.22;100.00
63700;BME280;49845;47.130;142.766;2022-07-24T10:03:00;100006.50;;;14.23;100.00
63700;BME280;49845;47.130;142.766;2022-07-24T10:05:39;99900.50;;;13.51;100.00
63700;BME280;49845;47.130;142.766;2022-07-24T10:08:13;99978.44;;;14.00;100.00
63700;BME280;49845;47.130;142.766;2022-07-24T10:10:44;99946.56;;;13.85;100.00
63700;BME280;49845;47.130;142.766;2022-07-24T10:13:24;99995.03;;;14.01;100.00
63700;BME280;49845;47.130;142.766;2022-07-24T10:16:19;100016.06;;;14.26;100.00
63700;BME280;49845;47.130;142.766;2022-07-24T10:18:54;99998.06;;;14.15;100.00
63700;BME280;49845;47.130;142.766;2022-07-24T10:21:28;100014.25;;;14.28;100.00
63700;BME280;49845;47.130;142.766;2022-07-24T10:24:21;100015.28;;;14.22;100.00
63700;BME280;49845;47.130;142.766;2022-07-24T10:27:02;100013.69;;;14.18;100.00
63700;BME280;49845;47.130;142.766;2022-07-24T10:29:34;99982.22;;;13.92;100.00
63700;BME280;49845;47.130;142.766;2022-07-24T10:32:06;100019.97;;;14.14;100.00
63700;BME280;49845;47.130;142.766;2022-07-24T10:34:43;100020.88;;;14.13;100.00
63700;BME280;49845;47.130;142.766;2022-07-24T10:37:24;100022.47;;;14.17;100.00
63700;BME280;49845;47.130;142.766;2022-07-24T10:40:11;100025.19;;;14.16;100.00
63700;BME280;49845;47.130;142.766;2022-07-24T10:43:10;100033.00;;;14.17;100.00
63700;BME280;49845;47.130;142.766;2022-07-24T10:45:42;100036.44;;;14.19;100.00
63700;BME280;49845;47.130;142.766;2022-07-24T10:48:32;100039.16;;;14.16;100.00
63700;BME280;49845;47.130;142.766;2022-07-24T10:51:08;100032.22;;;14.15;100.00
63700;BME280;49845;47.130;142.766;2022-07-24T10:53:50;100043.50;;;14.17;100.00
63700;BME280;49845;47.130;142.766;2022-07-24T10:56:24;100034.91;;;14.12;100.00
63700;BME280;49845;47.130;142.766;2022-07-24T10:58:59;100046.09;;;14.19;100.00
63700;BME280;49845;47.130;142.766;2022-07-24T11:01:37;100045.84;;;14.00;100.00
63700;BME280;49845;47.130;142.766;2022-07-24T11:04:26;100052.31;;;14.16;100.00
63700;BME280;49845;47.130;142.766;2022-07-24T11:07:09;100061.91;;;14.17;100.00
63700;BME280;49845;47.130;142.766;2022-07-24T11:10:02;100054.00;;;14.17;100.00
63700;BME280;49845;47.130;142.766;2022-07-24T11:12:42;100042.09;;;14.07;100.00
63700;BME280;49845;47.130;142.766;2022-07-24T11:15:14;100066.38;;;14.15;100.00
63700;BME280;49845;47.130;142.766;2022-07-24T11:18:13;100063.66;;;14.17;100.00
63700;BME280;49845;47.130;142.766;2022-07-24T11:20:44;100062.81;;;14.16;100.00
63700;BME280;49845;47.130;142.766;2022-07-24T11:23:20;100061.13;;;14.15;100.00
63700;BME280;49845;47.130;142.766;2022-07-24T11:29:13;100066.38;;;14.15;100.00
63700;BME280;49845;47.130;142.766;2022-07-24T11:31:45;100068.06;;;14.16;100.00
63700;BME280;49845;47.130;142.766;2022-07-24T11:34:18;100066.38;;;14.15;100.00
63700;BME280;49845;47.130;142.766;2022-07-24T11:36:50;100041.63;;;13.96;100.00
63700;BME280;49845;47.130;142.766;2022-07-24T11:39:26;100071.66;;;14.14;100.00
63700;BME280;49845;47.130;142.766;2022-07-24T11:42:00;100066.44;;;14.12;100.00
63700;BME280;49845;47.130;142.766;2022-07-24T11:44:35;100040.69;;;13.97;100.00
63700;BME280;49845;47.130;142.766;2022-07-24T11:47:19;100071.69;;;14.12;100.00
63700;BME280;49845;47.130;142.766;2022-07-24T11:49:51;100080.41;;;14.14;100.00
63700;BME280;49845;47.130;142.766;2022-07-24T11:52:46;99994.47;;;13.66;100.00
63700;BME280;49845;47.130;142.766;2022-07-24T11:55:30;100069.03;;;14.14;100.00
63700;BME280;49845;47.130;142.766;2022-07-24T11:58:04;100056.47;;;13.97;100.00
63700;BME280;49845;47.130;142.766;2022-07-24T12:00:57;100073.53;;;14.10;100.00
63700;BME280;49845;47.130;142.766;2022-07-24T12:03:27;100067.53;;;14.07;100.00
63700;BME280;49845;47.130;142.766;2022-07-24T12:06:00;100073.63;;;14.07;100.00
63700;BME280;49845;47.130;142.766;2022-07-24T12:08:35;100072.63;;;14.11;100.00
63700;BME280;49845;47.130;142.766;2022-07-24T12:11:05;100071.63;;;14.15;100.00
63700;BME280;49845;47.130;142.766;2022-07-24T12:13:40;100068.06;;;14.16;100.00
63700;BME280;49845;47.130;142.766;2022-07-24T12:16:11;100070.69;;;14.16;100.00
63700;BME280;49845;47.130;142.766;2022-07-24T12:18:42;100054.22;;;14.11;100.00
63700;BME280;49845;47.130;142.766;2022-07-24T12:21:12;100025.16;;;13.91;100.00
63700;BME280;49845;47.130;142.766;2022-07-24T12:23:45;100074.06;;;14.20;100.00
63700;BME280;49845;47.130;142.766;2022-07-24T12:26:16;100075.25;;;14.11;100.00
63700;BME280;49845;47.130;142.766;2022-07-24T12:29:16;100077.56;;;14.20;100.00
63700;BME280;49845;47.130;142.766;2022-07-24T12:32:13;99977.09;;;13.62;100.00
63700;BME280;49845;47.130;142.766;2022-07-24T12:34:50;100061.97;;;14.16;100.00
63700;BME280;49845;47.130;142.766;2022-07-24T12:37:42;100015.66;;;13.87;100.00
63700;BME280;49845;47.130;142.766;2022-07-24T12:40:45;100062.59;;;14.22;100.00
63700;BME280;49845;47.130;142.766;2022-07-24T12:43:51;100069.78;;;14.17;100.00
63700;BME280;49845;47.130;142.766;2022-07-24T12:46:33;100074.84;;;14.23;100.00
63700;BME280;49845;47.130;142.766;2022-07-24T12:49:08;100069.59;;;14.23;100.00
63700;BME280;49845;47.130;142.766;2022-07-24T12:51:50;100066.25;;;14.18;100.00
63700;BME280;49845;47.130;142.766;2022-07-24T12:54:24;100070.31;;;14.27;100.00
63700;BME280;49845;47.130;142.766;2022-07-24T12:56:57;100067.66;;;14.29;100.00
63700;BME280;49845;47.130;142.766;2022-07-24T12:59:29;100069.34;;;14.30;100.00
63700;BME280;49845;47.130;142.766;2022-07-24T13:02:04;100074.63;;;14.30;100.00
63700;BME280;49845;47.130;142.766;2022-07-24T13:04:43;100068.50;;;14.29;100.00
63700;BME280;49845;47.130;142.766;2022-07-24T13:07:15;100074.63;;;14.30;100.00
63700;BME280;49845;47.130;142.766;2022-07-24T13:09:47;100043.41;;;14.20;100.00
63700;BME280;49845;47.130;142.766;2022-07-24T13:15:17;100062.59;;;14.22;100.00
63700;BME280;49845;47.130;142.766;2022-07-24T13:17:53;100063.47;;;14.23;100.00
63700;BME280;49845;47.130;142.766;2022-07-24T13:20:24;100066.44;;;14.12;100.00
63700;BME280;49845;47.130;142.766;2022-07-24T13:22:54;100013.16;;;13.84;100.00
63700;BME280;49845;47.130;142.766;2022-07-24T13:25:25;99988.09;;;13.73;100.00
63700;BME280;49845;47.130;142.766;2022-07-24T13:27:56;100069.34;;;14.30;100.00
63700;BME280;49845;47.130;142.766;2022-07-24T13:30:40;100053.94;;;14.20;100.00
63700;BME280;49845;47.130;142.766;2022-07-24T13:33:12;100073.59;;;14.34;100.00
63700;BME280;49845;47.130;142.766;2022-07-24T13:35:43;99994.06;;;13.78;100.00
63700;BME280;49845;47.130;142.766;2022-07-24T13:38:16;100045.34;;;14.15;100.00
63700;BME280;49845;47.130;142.766;2022-07-24T13:40:47;99999.75;;;13.91;100.00
63700;BME280;49845;47.130;142.766;2022-07-24T13:43:18;100051.31;;;14.20;100.00